sensor_id;sensor_type;location;lat;lon;timestamp;pressure;altitude;pressure_sealevel;temperature;humidity
45541;BME280;31265;49.680;8.608;2023-02-13T00:01:25;102689.16;;;0.97;100.00
45541;BME280;31265;49.680;8.608;2023-02-13T00:03:54;102690.13;;;1.03;100.00
45541;BME280;31265;49.680;8.608;2023-02-13T00:06:23;102686.53;;;1.06;100.00
45541;BME280;31265;49.680;8.608;2023-02-13T00:08:53;102684.34;;;1.01;100.00
45541;BME280;31265;49.680;8.608;2023-02-13T00:11:21;102680.19;;;1.09;100.00
45541;BME280;31265;49.680;8.608;2023-02-13T00:13:50;102681.06;;;1.06;100.00
45541;BME280;31265;49.680;8.608;2023-02-13T00:16:18;102687.28;;;0.94;100.00
45541;BME280;31265;49.680;8.608;2023-02-13T00:18:46;102685.97;;;0.85;100.00
45541;BME280;31265;49.680;8.608;2023-02-13T00:21:14;102677.56;;;0.80;100.00
45541;BME280;31265;49.680;8.608;2023-02-13T00:23:43;102682.38;;;0.76;100.00
45541;BME280;31265;49.680;8.608;2023-02-13T00:26:14;102674.03;;;0.67;100.00
45541;BME280;31265;49.680;8.608;2023-02-13T00:28:44;102675.88;;;0.57;100.00
45541;BME280;31265;49.680;8.608;2023-02-13T00:31:14;102674.81;;;0.67;100.00
45541;BME280;31265;49.680;8.608;2023-02-13T00:33:43;102676.56;;;0.61;100.00
45541;BME280;31265;49.680;8.608;2023-02-13T00:36:13;102682.91;;;0.58;100.00
45541;BME280;31265;49.680;8.608;2023-02-13T00:38:42;102678.31;;;0.55;100.00
45541;BME280;31265;49.680;8.608;2023-02-13T00:41:13;102678.41;;;0.51;100.00
45541;BME280;31265;49.680;8.608;2023-02-13T00:43:43;102678.50;;;0.35;100.00
45541;BME280;31265;49.680;8.608;2023-02-13T00:46:11;102678.78;;;0.37;100.00
45541;BME280;31265;49.680;8.608;2023-02-13T00:48:39;102675.81;;;0.18;100.00
45541;BME280;31265;49.680;8.608;2023-02-13T00:51:08;102682.91;;;0.16;100.00
45541;BME280;31265;49.680;8.608;2023-02-13T00:53:37;102673.50;;;0.17;100.00
45541;BME280;31265;49.680;8.608;2023-02-13T00:56:06;102678.06;;;0.07;100.00
45541;BME280;31265;49.680;8.608;2023-02-13T00:58:37;102675.09;;;0.02;100.00
45541;BME280;31265;49.680;8.608;2023-02-13T01:01:05;102682.81;;;-0.10;100.00
45541;BME280;31265;49.680;8.608;2023-02-13T01:03:34;102683.41;;;-0.18;100.00
45541;BME280;31265;49.680;8.608;2023-02-13T01:06:03;102685.31;;;-0.03;100.00
45541;BME280;31265;49.680;8.608;2023-02-13T01:08:32;102692.91;;;0.06;100.00
45541;BME280;31265;49.680;8.608;2023-02-13T01:11:01;102681.50;;;0.24;100.00
45541;BME280;31265;49.680;8.608;2023-02-13T01:13:29;102679.78;;;0.30;100.00
45541;BME280;31265;49.680;8.608;2023-02-13T01:15:59;102685.31;;;0.27;100.00
45541;BME280;31265;49.680;8.608;2023-02-13T01:18:28;102681.69;;;0.17;100.00
45541;BME280;31265;49.680;8.608;2023-02-13T01:20:59;102673.03;;;0.06;100.00
45541;BME280;31265;49.680;8.608;2023-02-13T01:23:31;102679.09;;;-0.03;100.00
45541;BME280;31265;49.680;8.608;2023-02-13T01:25:59;102670.69;;;-0.09;100.00
45541;BME280;31265;49.680;8.608;2023-02-13T01:28:28;102680.69;;;-0.18;100.00
45541;BME280;31265;49.680;8.608;2023-02-13T01:30:57;102677.38;;;-0.26;100.00
45541;BME280;31265;49.680;8.608;2023-02-13T01:33:29;102677.91;;;-0.31;100.00
45541;BME280;31265;49.680;8.608;2023-02-13T01:35:57;102676.97;;;-0.41;100.00
45541;BME280;31265;49.680;8.608;2023-02-13T01:38:26;102680.56;;;-0.44;100.00
45541;BME280;31265;49.680;8.608;2023-02-13T01:40:55;102676.28;;;-0.45;100.00
45541;BME280;31265;49.680;8.608;2023-02-13T01:43:24;102678.78;;;-0.51;100.00
45541;BME280;31265;49.680;8.608;2023-02-13T01:46:10;102666.41;;;-0.55;100.00
45541;BME280;31265;49.680;8.608;2023-02-13T01:48:40;102669.59;;;-0.57;100.00
45541;BME280;31265;49.680;8.608;2023-02-13T01:51:11;102674.59;;;-0.55;100.00
45541;BME280;31265;49.680;8.608;2023-02-13T01:53:42;102667.50;;;-0.53;100.00
45541;BME280;31265;49.680;8.608;2023-02-13T01:56:17;102669.72;;;-0.48;100.00
45541;BME280;31265;49.680;8.608;2023-02-13T01:58:51;102675.19;;;-0.48;100.00
45541;BME280;31265;49.680;8.608;2023-02-13T02:01:21;102677.03;;;-0.45;100.00
45541;BME280;31265;49.680;8.608;2023-02-13T02:03:54;102671.59;;;-0.45;100.00
45541;BME280;31265;49.680;8.608;2023-02-13T02:06:27;102673.81;;;-0.39;100.00
45541;BME280;31265;49.680;8.608;2023-02-13T02:09:06;102681.22;;;-0.40;100.00
45541;BME280;31265;49.680;8.608;2023-02-13T02:11:40;102677.72;;;-0.40;100.00
45541;BME280;31265;49.680;8.608;2023-02-13T02:14:11;102678.50;;;-0.40;100.00
45541;BME280;31265;49.680;8.608;2023-02-13T02:16:41;102673.13;;;-0.44;100.00
45541;BME280;31265;49.680;8.608;2023-02-13T02:22:22;102672.72;;;-0.58;100.00
45541;BME280;31265;49.680;8.608;2023-02-13T02:25:14;102672.13;;;-0.66;100.00
45541;BME280;31265;49.680;8.608;2023-02-13T02:28:11;102668.03;;;-0.74;100.00
45541;BME280;31265;49.680;8.608;2023-02-13T02:33:47;102663.94;;;-0.82;100.00
45541;BME280;31265;49.680;8.608;2023-02-13T02:36:34;102660.56;;;-0.87;100.00
45541;BME280;31265;49.680;8.608;2023-02-13T02:39:13;102660.63;;;-0.90;100.00
45541;BME280;31265;49.680;8.608;2023-02-13T02:41:54;102658.00;;;-0.94;100.00
45541;BME280;31265;49.680;8.608;2023-02-13T02:44:31;102662.66;;;-0.94;100.00
45541;BME280;31265;49.680;8.608;2023-02-13T02:47:08;102662.06;;;-1.02;100.00
45541;BME280;31265;49.680;8.608;2023-02-13T02:50:06;102657.88;;;-1.06;100.00
45541;BME280;31265;49.680;8.608;2023-02-13T02:52:45;102658.56;;;-1.02;100.00
45541;BME280;31265;49.680;8.608;2023-02-13T02:55:26;102659.50;;;-0.93;100.00
45541;BME280;31265;49.680;8.608;2023-02-13T02:58:04;102658.50;;;-0.82;100.00
45541;BME280;31265;49.680;8.608;2023-02-13T03:00:57;102664.31;;;-0.64;100.00
45541;BME280;31265;49.680;8.608;2023-02-13T03:03:45;102659.91;;;-0.45;100.00
45541;BME280;31265;49.680;8.608;2023-02-13T03:06:36;102657.53;;;-0.43;100.00
45541;BME280;31265;49.680;8.608;2023-02-13T03:09:11;102670.75;;;-0.41;100.00
45541;BME280;31265;49.680;8.608;2023-02-13T03:11:59;102665.13;;;-0.34;100.00
45541;BME280;31265;49.680;8.608;2023-02-13T03:14:45;102665.13;;;-0.34;100.00
45541;BME280;31265;49.680;8.608;2023-02-13T03:17:16;102662.72;;;-0.32;100.00
45541;BME280;31265;49.680;8.608;2023-02-13T03:20:14;102672.00;;;-0.30;100.00
45541;BME280;31265;49.680;8.608;2023-02-13T03:23:11;102671.56;;;-0.28;100.00
45541;BME280;31265;49.680;8.608;2023-02-13T03:25:56;102666.63;;;-0.33;100.00
45541;BME280;31265;49.680;8.608;2023-02-13T03:28:35;102676.56;;;-0.39;100.00
45541;BME280;31265;49.680;8.608;2023-02-13T03:31:31;102670.22;;;-0.36;100.00
45541;BME280;31265;49.680;8.608;2023-02-13T03:34:04;102673.13;;;-0.27;100.00
45541;BME280;31265;49.680;8.608;2023-02-13T03:36:39;102677.38;;;-0.26;100.00
45541;BME280;31265;49.680;8.608;2023-02-13T03:39:37;102669.88;;;-0.22;100.00
45541;BME280;31265;49.680;8.608;2023-02-13T03:42:14;102676.97;;;-0.25;100.00
45541;BME280;31265;49.680;8.608;2023-02-13T03:44:49;102673.88;;;-0.27;100.00
45541;BME280;31265;49.680;8.608;2023-02-13T03:47:41;102681.56;;;-0.22;100.00
45541;BME280;31265;49.680;8.608;2023-02-13T03:50:12;102683.06;;;-0.20;100.00
45541;BME280;31265;49.680;8.608;2023-02-13T03:52:44;102679.41;;;-0.14;100.00
45541;BME280;31265;49.680;8.608;2023-02-13T03:55:19;102681.25;;;-0.11;100.00
45541;BME280;31265;49.680;8.608;2023-02-13T03:58:08;102675.38;;;-0.09;100.00
45541;BME280;31265;49.680;8.608;2023-02-13T04:00:58;102682.19;;;-0.01;100.00
45541;BME280;31265;49.680;8.608;2023-02-13T04:03:34;102678.66;;;0.15;100.00
45541;BME280;31265;49.680;8.608;2023-02-13T04:06:07;102673.84;;;0.19;100.00
45541;BME280;31265;49.680;8.608;2023-02-13T04:08:36;102681.06;;;0.26;100.00
45541;BME280;31265;49.680;8.608;2023-02-13T04:11:10;102676.03;;;0.24;100.00
45541;BME280;31265;49.680;8.608;2023-02-13T04:13:46;102673.56;;;0.30;100.00
45541;BME280;31265;49.680;8.608;2023-02-13T04:16:20;102681.84;;;0.26;100.00
45541;BME280;31265;49.680;8.608;2023-02-13T04:18:51;102678.91;;;0.33;100.00
45541;BME280;31265;49.680;8.608;2023-02-13T04:21:20;102685.84;;;0.21;100.00
45541;BME280;31265;49.680;8.608;2023-02-13T04:23:48;102682.22;;;0.12;100.00
45541;BME280;31265;49.680;8.608;2023-02-13T04:26:20;102676.41;;;0.10;100.00
45541;BME280;31265;49.680;8.608;2023-02-13T04:28:48;102687.44;;;0.06;100.00
45541;BME280;31265;49.680;8.608;2023-02-13T04:31:16;102685.66;;;-0.01;100.00
45541;BME280;31265;49.680;8.608;2023-02-13T04:33:45;102688.84;;;-0.02;100.00
45541;BME280;31265;49.680;8.608;2023-02-13T04:36:13;102682.09;;;0.03;100.00
45541;BME280;31265;49.680;8.608;2023-02-13T04:38:42;102675.56;;;0.13;100.00
45541;BME280;31265;49.680;8.608;2023-02-13T04:41:11;102681.41;;;0.28;100.00
45541;BME280;31265;49.680;8.608;2023-02-13T04:43:41;102675.03;;;0.18;100.00
45541;BME280;31265;49.680;8.608;2023-02-13T04:46:09;102683.69;;;0.29;100.00
45541;BME280;31265;49.680;8.608;2023-02-13T04:48:37;102682.44;;;0.47;100.00
45541;BME280;31265;49.680;8.608;2023-02-13T04:51:06;102683.66;;;0.58;100.00
45541;BME280;31265;49.680;8.608;2023-02-13T04:53:34;102676.66;;;0.57;100.00
45541;BME280;31265;49.680;8.608;2023-02-13T04:56:03;102676.69;;;0.70;100.00
45541;BME280;31265;49.680;8.608;2023-02-13T04:58:32;102682.16;;;0.70;100.00
45541;BME280;31265;49.680;8.608;2023-02-13T05:01:02;102677.34;;;0.87;100.00
45541;BME280;31265;49.680;8.608;2023-02-13T05:03:30;102670.34;;;0.86;100.00
45541;BME280;31265;49.680;8.608;2023-02-13T05:05:59;102674.94;;;1.02;100.00
45541;BME280;31265;49.680;8.608;2023-02-13T05:08:27;102670.56;;;1.04;100.00
45541;BME280;31265;49.680;8.608;2023-02-13T05:10:56;102675.59;;;1.19;100.00
45541;BME280;31265;49.680;8.608;2023-02-13T05:13:25;102670.88;;;1.32;100.00
45541;BME280;31265;49.680;8.608;2023-02-13T05:15:53;102671.28;;;1.31;100.00
45541;BME280;31265;49.680;8.608;2023-02-13T05:18:23;102668.66;;;1.40;100.00
45541;BME280;31265;49.680;8.608;2023-02-13T05:20:51;102676.22;;;1.36;100.00
45541;BME280;31265;49.680;8.608;2023-02-13T05:23:33;102675.25;;;1.29;100.00
45541;BME280;31265;49.680;8.608;2023-02-13T05:26:02;102672.09;;;1.31;100.00
45541;BME280;31265;49.680;8.608;2023-02-13T05:28:30;102671.09;;;1.12;100.00
45541;BME280;31265;49.680;8.608;2023-02-13T05:31:16;102672.22;;;1.02;100.00
45541;BME280;31265;49.680;8.608;2023-02-13T05:33:46;102675.81;;;0.99;100.00
45541;BME280;31265;49.680;8.608;2023-02-13T05:36:14;102667.59;;;0.99;100.00
45541;BME280;31265;49.680;8.608;2023-02-13T05:38:42;102668.06;;;0.84;100.00
45541;BME280;31265;49.680;8.608;2023-02-13T05:41:11;102665.09;;;0.79;100.00
45541;BME280;31265;49.680;8.608;2023-02-13T05:43:40;102667.47;;;0.64;100.00
45541;BME280;31265;49.680;8.608;2023-02-13T05:46:09;102669.16;;;0.74;100.00
45541;BME280;31265;49.680;8.608;2023-02-13T05:48:37;102664.66;;;0.80;100.00
45541;BME280;31265;49.680;8.608;2023-02-13T05:51:07;102666.41;;;1.13;100.00
45541;BME280;31265;49.680;8.608;2023-02-13T05:53:36;102666.19;;;1.20;100.00
45541;BME280;31265;49.680;8.608;2023-02-13T05:56:05;102672.09;;;1.31;100.00
45541;BME280;31265;49.680;8.608;2023-02-13T05:58:34;102666.16;;;1.33;100.00
45541;BME280;31265;49.680;8.608;2023-02-13T06:01:03;102667.69;;;1.34;100.00
45541;BME280;31265;49.680;8.608;2023-02-13T06:03:31;102664.84;;;1.24;100.00
45541;BME280;31265;49.680;8.608;2023-02-13T06:06:00;102668.47;;;1.08;100.00
45541;BME280;31265;49.680;8.608;2023-02-13T06:08:30;102667.28;;;0.97;100.00
45541;BME280;31265;49.680;8.608;2023-02-13T06:10:58;102669.03;;;0.78;100.00
45541;BME280;31265;49.680;8.608;2023-02-13T06:13:27;102667.06;;;0.66;100.00
45541;BME280;31265;49.680;8.608;2023-02-13T06:15:56;102663.44;;;0.56;100.00
45541;BME280;31265;49.680;8.608;2023-02-13T06:18:24;102670.75;;;0.46;100.00
45541;BME280;31265;49.680;8.608;2023-02-13T06:20:52;102671.81;;;0.36;100.00
45541;BME280;31265;49.680;8.608;2023-02-13T06:23:21;102669.63;;;0.43;100.00
45541;BME280;31265;49.680;8.608;2023-02-13T06:25:51;102670.31;;;0.48;100.00
45541;BME280;31265;49.680;8.608;2023-02-13T06:28:19;102672.69;;;0.33;100.00
45541;BME280;31265;49.680;8.608;2023-02-13T06:30:47;102674.22;;;0.34;100.00
45541;BME280;31265;49.680;8.608;2023-02-13T06:33:15;102671.84;;;0.49;100.00
45541;BME280;31265;49.680;8.608;2023-02-13T06:35:44;102677.06;;;0.43;100.00
45541;BME280;31265;49.680;8.608;2023-02-13T06:38:12;102670.94;;;0.39;100.00
45541;BME280;31265;49.680;8.608;2023-02-13T06:40:41;102685.03;;;0.37;100.00
45541;BME280;31265;49.680;8.608;2023-02-13T06:43:10;102679.44;;;0.28;100.00
45541;BME280;31265;49.680;8.608;2023-02-13T06:45:39;102681.16;;;0.22;100.00
45541;BME280;31265;49.680;8.608;2023-02-13T06:48:12;102683.44;;;0.11;100.00
45541;BME280;31265;49.680;8.608;2023-02-13T06:50:44;102681.00;;;0.00;100.00
45541;BME280;31265;49.680;8.608;2023-02-13T06:53:13;102688.94;;;-0.06;100.00
45541;BME280;31265;49.680;8.608;2023-02-13T06:55:41;102687.94;;;-0.12;100.00
45541;BME280;31265;49.680;8.608;2023-02-13T06:58:11;102693.56;;;-0.19;100.00
45541;BME280;31265;49.680;8.608;2023-02-13T07:00:39;102690.09;;;-0.19;100.00
45541;BME280;31265;49.680;8.608;2023-02-13T07:03:09;102690.91;;;-0.23;100.00
45541;BME280;31265;49.680;8.608;2023-02-13T07:05:38;102697.16;;;-0.22;100.00
45541;BME280;31265;49.680;8.608;2023-02-13T07:08:06;102697.16;;;-0.22;100.00
45541;BME280;31265;49.680;8.608;2023-02-13T07:10:36;102701.06;;;-0.23;100.00
45541;BME280;31265;49.680;8.608;2023-02-13T07:13:05;102696.81;;;-0.24;100.00
45541;BME280;31265;49.680;8.608;2023-02-13T07:15:35;102695.84;;;-0.17;100.00
45541;BME280;31265;49.680;8.608;2023-02-13T07:18:05;102697.97;;;-0.09;100.00
45541;BME280;31265;49.680;8.608;2023-02-13T07:20:33;102698.22;;;-0.03;100.00
45541;BME280;31265;49.680;8.608;2023-02-13T07:23:03;102712.44;;;0.05;100.00
45541;BME280;31265;49.680;8.608;2023-02-13T07:25:32;102710.38;;;0.09;100.00
45541;BME280;31265;49.680;8.608;2023-02-13T07:28:01;102706.72;;;0.15;100.00
45541;BME280;31265;49.680;8.608;2023-02-13T07:30:30;102702.25;;;0.21;100.00
45541;BME280;31265;49.680;8.608;2023-02-13T07:33:01;102710.81;;;0.36;100.00
45541;BME280;31265;49.680;8.608;2023-02-13T07:35:29;102710.53;;;0.47;100.00
45541;BME280;31265;49.680;8.608;2023-02-13T07:37:58;102716.34;;;0.62;100.00
45541;BME280;31265;49.680;8.608;2023-02-13T07:40:27;102718.34;;;0.74;100.00
45541;BME280;31265;49.680;8.608;2023-02-13T07:42:59;102713.44;;;0.95;100.00
45541;BME280;31265;49.680;8.608;2023-02-13T07:45:27;102717.91;;;1.01;100.00
45541;BME280;31265;49.680;8.608;2023-02-13T07:47:56;102713.09;;;0.93;100.00
45541;BME280;31265;49.680;8.608;2023-02-13T07:50:26;102714.53;;;1.10;100.00
45541;BME280;31265;49.680;8.608;2023-02-13T07:52:55;102712.78;;;1.29;100.00
45541;BME280;31265;49.680;8.608;2023-02-13T07:55:24;102713.09;;;1.44;100.00
45541;BME280;31265;49.680;8.608;2023-02-13T07:57:52;102712.75;;;1.42;100.00
45541;BME280;31265;49.680;8.608;2023-02-13T08:00:21;102714.16;;;1.59;100.00
45541;BME280;31265;49.680;8.608;2023-02-13T08:02:50;102719.16;;;1.74;100.00
45541;BME280;31265;49.680;8.608;2023-02-13T08:05:18;102721.91;;;1.74;100.00
45541;BME280;31265;49.680;8.608;2023-02-13T08:07:48;102713.22;;;1.75;100.00
45541;BME280;31265;49.680;8.608;2023-02-13T08:10:16;102716.81;;;1.85;100.00
45541;BME280;31265;49.680;8.608;2023-02-13T08:13:03;102715.06;;;1.91;100.00
45541;BME280;31265;49.680;8.608;2023-02-13T08:15:31;102715.56;;;1.99;100.00
45541;BME280;31265;49.680;8.608;2023-02-13T08:17:59;102722.47;;;2.03;100.00
45541;BME280;31265;49.680;8.608;2023-02-13T08:20:27;102718.59;;;2.13;100.00
45541;BME280;31265;49.680;8.608;2023-02-13T08:23:03;102721.66;;;2.15;100.00
45541;BME280;31265;49.680;8.608;2023-02-13T08:25:31;102719.75;;;2.25;100.00
45541;BME280;31265;49.680;8.608;2023-02-13T08:28:00;102725.78;;;2.42;100.00
45541;BME280;31265;49.680;8.608;2023-02-13T08:30:29;102728.00;;;2.56;100.00
45541;BME280;31265;49.680;8.608;2023-02-13T08:32:58;102718.31;;;2.65;100.00
45541;BME280;31265;49.680;8.608;2023-02-13T08:35:27;102717.09;;;2.66;100.00
45541;BME280;31265;49.680;8.608;2023-02-13T08:38:02;102713.03;;;2.70;100.00
45541;BME280;31265;49.680;8.608;2023-02-13T08:40:30;102719.91;;;2.75;100.00
45541;BME280;31265;49.680;8.608;2023-02-13T08:42:59;102716.16;;;2.91;100.00
45541;BME280;31265;49.680;8.608;2023-02-13T08:45:28;102708.97;;;2.84;100.00
45541;BME280;31265;49.680;8.608;2023-02-13T08:47:57;102708.56;;;2.95;100.00
45541;BME280;31265;49.680;8.608;2023-02-13T08:50:26;102704.59;;;2.96;100.00
45541;BME280;31265;49.680;8.608;2023-02-13T08:52:57;102711.53;;;3.10;100.00
45541;BME280;31265;49.680;8.608;2023-02-13T08:55:27;102708.34;;;3.20;100.00
45541;BME280;31265;49.680;8.608;2023-02-13T08:57:58;102706.03;;;3.19;100.00
45541;BME280;31265;49.680;8.608;2023-02-13T09:00:27;102703.34;;;3.28;100.00
45541;BME280;31265;49.680;8.608;2023-02-13T09:02:59;102700.94;;;3.39;100.00
45541;BME280;31265;49.680;8.608;2023-02-13T09:05:29;102695.47;;;3.58;100.00
45541;BME280;31265;49.680;8.608;2023-02-13T09:07:59;102705.72;;;3.66;100.00
45541;BME280;31265;49.680;8.608;2023-02-13T09:10:30;102700.97;;;3.67;100.00
45541;BME280;31265;49.680;8.608;2023-02-13T09:12:59;102701.00;;;3.76;100.00
45541;BME280;31265;49.680;8.608;2023-02-13T09:15:28;102708.31;;;3.79;100.00
45541;BME280;31265;49.680;8.608;2023-02-13T09:17:57;102703.44;;;3.93;100.00
45541;BME280;31265;49.680;8.608;2023-02-13T09:20:25;102693.50;;;3.95;100.00
45541;BME280;31265;49.680;8.608;2023-02-13T09:22:54;102698.25;;;4.04;100.00
45541;BME280;31265;49.680;8.608;2023-02-13T09:25:23;102703.88;;;4.09;100.00
45541;BME280;31265;49.680;8.608;2023-02-13T09:27:53;102703.13;;;4.18;100.00
45541;BME280;31265;49.680;8.608;2023-02-13T09:30:22;102704.34;;;4.17;100.00
45541;BME280;31265;49.680;8.608;2023-02-13T09:32:51;102700.22;;;4.22;100.00
45541;BME280;31265;49.680;8.608;2023-02-13T09:35:20;102698.38;;;4.28;100.00
45541;BME280;31265;49.680;8.608;2023-02-13T09:37:49;102702.47;;;4.42;100.00
45541;BME280;31265;49.680;8.608;2023-02-13T09:40:20;102700.47;;;4.51;100.00
45541;BME280;31265;49.680;8.608;2023-02-13T09:42:58;102699.81;;;4.66;100.00
45541;BME280;31265;49.680;8.608;2023-02-13T09:45:33;102703.94;;;4.61;100.00
45541;BME280;31265;49.680;8.608;2023-02-13T09:48:02;102700.91;;;4.59;100.00
45541;BME280;31265;49.680;8.608;2023-02-13T09:50:32;102701.19;;;4.70;100.00
45541;BME280;31265;49.680;8.608;2023-02-13T09:53:03;102708.50;;;5.07;100.00
45541;BME280;31265;49.680;8.608;2023-02-13T09:55:36;102711.44;;;5.03;100.00
45541;BME280;31265;49.680;8.608;2023-02-13T09:58:14;102710.81;;;5.08;100.00
45541;BME280;31265;49.680;8.608;2023-02-13T10:00:49;102704.00;;;5.28;100.00
45541;BME280;31265;49.680;8.608;2023-02-13T10:03:27;102708.66;;;5.36;100.00
45541;BME280;31265;49.680;8.608;2023-02-13T10:06:02;102710.63;;;5.45;100.00
45541;BME280;31265;49.680;8.608;2023-02-13T10:08:44;102705.06;;;5.54;100.00
45541;BME280;31265;49.680;8.608;2023-02-13T10:11:26;102706.63;;;5.70;100.00
45541;BME280;31265;49.680;8.608;2023-02-13T10:14:03;102701.97;;;6.00;100.00
45541;BME280;31265;49.680;8.608;2023-02-13T10:16:35;102700.22;;;5.88;100.00
45541;BME280;31265;49.680;8.608;2023-02-13T10:19:13;102698.00;;;6.01;100.00
45541;BME280;31265;49.680;8.608;2023-02-13T10:21:48;102697.34;;;6.07;100.00
45541;BME280;31265;49.680;8.608;2023-02-13T10:24:26;102697.06;;;6.19;100.00
45541;BME280;31265;49.680;8.608;2023-02-13T10:26:58;102700.78;;;6.46;100.00
45541;BME280;31265;49.680;8.608;2023-02-13T10:29:38;102694.53;;;6.45;100.00
45541;BME280;31265;49.680;8.608;2023-02-13T10:32:34;102696.88;;;6.53;100.00
45541;BME280;31265;49.680;8.608;2023-02-13T10:35:16;102696.41;;;6.69;100.00
45541;BME280;31265;49.680;8.608;2023-02-13T10:37:46;102700.28;;;6.62;100.00
45541;BME280;31265;49.680;8.608;2023-02-13T10:40:17;102692.13;;;6.68;100.00
45541;BME280;31265;49.680;8.608;2023-02-13T10:42:53;102689.25;;;6.77;100.00
45541;BME280;31265;49.680;8.608;2023-02-13T10:45:45;102696.06;;;6.97;100.00
45541;BME280;31265;49.680;8.608;2023-02-13T10:48:28;102686.69;;;7.09;100.00
45541;BME280;31265;49.680;8.608;2023-02-13T10:51:04;102681.69;;;7.07;100.00
45541;BME280;31265;49.680;8.608;2023-02-13T10:53:47;102689.97;;;7.07;100.00
45541;BME280;31265;49.680;8.608;2023-02-13T10:56:29;102675.59;;;7.24;100.00
45541;BME280;31265;49.680;8.608;2023-02-13T10:59:22;102677.50;;;7.32;100.00
45541;BME280;31265;49.680;8.608;2023-02-13T11:02:01;102670.78;;;7.39;100.00
45541;BME280;31265;49.680;8.608;2023-02-13T11:04:31;102665.75;;;7.58;100.00
45541;BME280;31265;49.680;8.608;2023-02-13T11:07:02;102667.25;;;7.80;100.00
45541;BME280;31265;49.680;8.608;2023-02-13T11:09:36;102662.00;;;7.82;100.00
45541;BME280;31265;49.680;8.608;2023-02-13T11:12:28;102661.28;;;8.13;100.00
45541;BME280;31265;49.680;8.608;2023-02-13T11:14:58;102661.25;;;8.07;100.00
45541;BME280;31265;49.680;8.608;2023-02-13T11:17:31;102642.44;;;8.11;100.00
45541;BME280;31265;49.680;8.608;2023-02-13T11:20:02;102652.47;;;8.09;100.00
45541;BME280;31265;49.680;8.608;2023-02-13T11:22:33;102649.09;;;8.25;100.00
45541;BME280;31265;49.680;8.608;2023-02-13T11:25:06;102637.50;;;8.21;100.00
45541;BME280;31265;49.680;8.608;2023-02-13T11:27:37;102644.41;;;8.37;100.00
45541;BME280;31265;49.680;8.608;2023-02-13T11:30:30;102642.81;;;8.56;100.00
45541;BME280;31265;49.680;8.608;2023-02-13T11:33:01;102642.81;;;8.56;100.00
45541;BME280;31265;49.680;8.608;2023-02-13T11:35:35;102639.66;;;8.75;100.00
45541;BME280;31265;49.680;8.608;2023-02-13T11:38:12;102634.13;;;8.75;100.00
45541;BME280;31265;49.680;8.608;2023-02-13T11:40:42;102642.28;;;8.90;100.00
45541;BME280;31265;49.680;8.608;2023-02-13T11:43:18;102635.22;;;8.83;100.00
45541;BME280;31265;49.680;8.608;2023-02-13T11:46:05;102633.22;;;8.89;100.00
45541;BME280;31265;49.680;8.608;2023-02-13T11:48:35;102631.19;;;8.84;100.00
45541;BME280;31265;49.680;8.608;2023-02-13T11:51:03;102624.13;;;8.83;100.00
45541;BME280;31265;49.680;8.608;2023-02-13T11:53:35;102623.00;;;9.07;100.00
45541;BME280;31265;49.680;8.608;2023-02-13T11:56:08;102623.53;;;9.11;100.00
45541;BME280;31265;49.680;8.608;2023-02-13T11:58:38;102621.78;;;9.13;100.00
45541;BME280;31265;49.680;8.608;2023-02-13T12:01:22;102616.50;;;9.15;100.00
45541;BME280;31265;49.680;8.608;2023-02-13T12:04:00;102619.84;;;9.36;100.00
45541;BME280;31265;49.680;8.608;2023-02-13T12:06:29;102626.66;;;9.35;100.00
45541;BME280;31265;49.680;8.608;2023-02-13T12:09:11;102624.66;;;9.41;100.00
45541;BME280;31265;49.680;8.608;2023-02-13T12:11:44;102618.13;;;9.50;100.00
45541;BME280;31265;49.680;8.608;2023-02-13T12:14:17;102620.16;;;9.55;100.00
45541;BME280;31265;49.680;8.608;2023-02-13T12:16:50;102620.66;;;9.48;100.00
45541;BME280;31265;49.680;8.608;2023-02-13T12:19:24;102612.13;;;9.57;100.00
45541;BME280;31265;49.680;8.608;2023-02-13T12:22:17;102614.41;;;9.64;100.00
45541;BME280;31265;49.680;8.608;2023-02-13T12:25:23;102604.81;;;9.65;100.00
45541;BME280;31265;49.680;8.608;2023-02-13T12:28:05;102612.66;;;9.67;100.00
45541;BME280;31265;49.680;8.608;2023-02-13T12:30:51;102613.91;;;9.88;100.00
45541;BME280;31265;49.680;8.608;2023-02-13T12:33:37;102605.38;;;9.98;100.00
45541;BME280;31265;49.680;8.608;2023-02-13T12:36:12;102606.13;;;9.98;100.00
45541;BME280;31265;49.680;8.608;2023-02-13T12:38:59;102603.84;;;9.91;100.00
45541;BME280;31265;49.680;8.608;2023-02-13T12:41:37;102608.63;;;9.96;100.00
45541;BME280;31265;49.680;8.608;2023-02-13T12:44:43;102606.13;;;9.98;100.00
45541;BME280;31265;49.680;8.608;2023-02-13T12:47:18;102599.31;;;9.94;100.00
45541;BME280;31265;49.680;8.608;2023-02-13T12:50:00;102586.97;;;10.00;100.00
45541;BME280;31265;49.680;8.608;2023-02-13T12:52:41;102588.22;;;9.99;100.00
45541;BME280;31265;49.680;8.608;2023-02-13T12:55:21;102587.97;;;9.92;100.00
45541;BME280;31265;49.680;8.608;2023-02-13T12:58:03;102584.69;;;9.99;100.00
45541;BME280;31265;49.680;8.608;2023-02-13T13:00:43;102578.16;;;10.02;100.00
45541;BME280;31265;49.680;8.608;2023-02-13T13:03:32;102580.91;;;10.24;100.00
45541;BME280;31265;49.680;8.608;2023-02-13T13:12:39;102571.59;;;10.05;100.00
45541;BME280;31265;49.680;8.608;2023-02-13T13:15:16;102568.81;;;10.22;100.00
45541;BME280;31265;49.680;8.608;2023-02-13T13:17:57;102565.28;;;10.16;100.00
45541;BME280;31265;49.680;8.608;2023-02-13T13:20:50;102562.25;;;10.13;100.00
45541;BME280;31265;49.680;8.608;2023-02-13T13:23:25;102561.50;;;10.47;100.00
45541;BME280;31265;49.680;8.608;2023-02-13T13:26:06;102557.69;;;10.50;100.00
45541;BME280;31265;49.680;8.608;2023-02-13T13:28:41;102557.94;;;10.41;100.00
45541;BME280;31265;49.680;8.608;2023-02-13T13:31:11;102555.19;;;10.46;100.00
45541;BME280;31265;49.680;8.608;2023-02-13T13:33:43;102547.34;;;10.45;100.00